sensor_id;sensor_type;location;lat;lon;timestamp;P1;durP1;ratioP1;P2;durP2;ratioP2
25153;SDS011;47555;51.038;6.280;2023-02-26T00:01:35;3.28;;;2.10;;
25153;SDS011;47555;51.038;6.280;2023-02-26T00:04:02;5.80;;;2.40;;
25153;SDS011;47555;51.038;6.280;2023-02-26T00:06:31;6.82;;;2.20;;
25153;SDS011;47555;51.038;6.280;2023-02-26T00:08:59;3.60;;;2.13;;
25153;SDS011;47555;51.038;6.280;2023-02-26T00:11:25;4.85;;;1.95;;
25153;SDS011;47555;51.038;6.280;2023-02-26T00:13:51;6.38;;;2.42;;
25153;SDS011;47555;51.038;6.280;2023-02-26T00:18:57;6.75;;;2.95;;
25153;SDS011;47555;51.038;6.280;2023-02-26T00:21:25;6.70;;;3.08;;
25153;SDS011;47555;51.038;6.280;2023-02-26T00:23:52;5.72;;;2.40;;
25153;SDS011;47555;51.038;6.280;2023-02-26T00:26:18;6.68;;;2.90;;
25153;SDS011;47555;51.038;6.280;2023-02-26T00:28:44;3.33;;;2.83;;
25153;SDS011;47555;51.038;6.280;2023-02-26T00:31:10;8.05;;;3.20;;
25153;SDS011;47555;51.038;6.280;2023-02-26T00:33:38;4.85;;;2.95;;
25153;SDS011;47555;51.038;6.280;2023-02-26T00:36:17;7.82;;;3.42;;
25153;SDS011;47555;51.038;6.280;2023-02-26T00:38:51;3.17;;;2.60;;
25153;SDS011;47555;51.038;6.280;2023-02-26T00:41:29;6.55;;;2.78;;
25153;SDS011;47555;51.038;6.280;2023-02-26T00:43:55;6.75;;;3.20;;
25153;SDS011;47555;51.038;6.280;2023-02-26T00:46:28;9.13;;;2.72;;
25153;SDS011;47555;51.038;6.280;2023-02-26T00:51:56;4.22;;;2.53;;
25153;SDS011;47555;51.038;6.280;2023-02-26T00:54:26;4.28;;;2.25;;
25153;SDS011;47555;51.038;6.280;2023-02-26T00:56:54;3.70;;;2.70;;
25153;SDS011;47555;51.038;6.280;2023-02-26T00:59:20;2.83;;;2.47;;
25153;SDS011;47555;51.038;6.280;2023-02-26T01:01:47;4.72;;;2.60;;
25153;SDS011;47555;51.038;6.280;2023-02-26T01:04:13;6.28;;;2.40;;
25153;SDS011;47555;51.038;6.280;2023-02-26T01:06:41;2.55;;;2.15;;
25153;SDS011;47555;51.038;6.280;2023-02-26T01:09:44;7.22;;;2.60;;
25153;SDS011;47555;51.038;6.280;2023-02-26T01:12:06;7.50;;;2.42;;
25153;SDS011;47555;51.038;6.280;2023-02-26T01:14:34;5.72;;;2.63;;
25153;SDS011;47555;51.038;6.280;2023-02-26T01:19:52;5.30;;;2.40;;
25153;SDS011;47555;51.038;6.280;2023-02-26T01:22:32;4.55;;;2.47;;
25153;SDS011;47555;51.038;6.280;2023-02-26T01:25:04;6.43;;;2.42;;
25153;SDS011;47555;51.038;6.280;2023-02-26T01:27:33;8.50;;;2.60;;
25153;SDS011;47555;51.038;6.280;2023-02-26T01:29:59;2.70;;;2.17;;
25153;SDS011;47555;51.038;6.280;2023-02-26T01:32:41;2.80;;;2.30;;
25153;SDS011;47555;51.038;6.280;2023-02-26T01:38:06;5.72;;;2.50;;
25153;SDS011;47555;51.038;6.280;2023-02-26T01:40:39;3.25;;;2.17;;
25153;SDS011;47555;51.038;6.280;2023-02-26T01:43:10;6.15;;;2.13;;
25153;SDS011;47555;51.038;6.280;2023-02-26T01:46:04;4.35;;;2.17;;
25153;SDS011;47555;51.038;6.280;2023-02-26T01:48:36;3.78;;;2.28;;
25153;SDS011;47555;51.038;6.280;2023-02-26T01:54:07;4.15;;;2.22;;
25153;SDS011;47555;51.038;6.280;2023-02-26T01:56:32;3.15;;;1.95;;
25153;SDS011;47555;51.038;6.280;2023-02-26T01:58:58;5.90;;;2.40;;
25153;SDS011;47555;51.038;6.280;2023-02-26T02:01:24;4.78;;;1.77;;
25153;SDS011;47555;51.038;6.280;2023-02-26T02:03:50;3.17;;;2.00;;
25153;SDS011;47555;51.038;6.280;2023-02-26T02:06:18;4.90;;;1.98;;
25153;SDS011;47555;51.038;6.280;2023-02-26T02:08:46;2.28;;;1.95;;
25153;SDS011;47555;51.038;6.280;2023-02-26T02:11:12;3.63;;;2.00;;
25153;SDS011;47555;51.038;6.280;2023-02-26T02:27:45;3.67;;;2.05;;
25153;SDS011;47555;51.038;6.280;2023-02-26T02:30:31;5.00;;;1.88;;
25153;SDS011;47555;51.038;6.280;2023-02-26T02:35:55;3.45;;;2.00;;
25153;SDS011;47555;51.038;6.280;2023-02-26T02:38:27;3.53;;;2.10;;
25153;SDS011;47555;51.038;6.280;2023-02-26T02:41:08;3.80;;;2.10;;
25153;SDS011;47555;51.038;6.280;2023-02-26T02:44:03;2.47;;;2.25;;
25153;SDS011;47555;51.038;6.280;2023-02-26T02:46:34;2.80;;;1.58;;
25153;SDS011;47555;51.038;6.280;2023-02-26T02:49:04;4.38;;;1.73;;
25153;SDS011;47555;51.038;6.280;2023-02-26T02:51:38;3.08;;;1.98;;
25153;SDS011;47555;51.038;6.280;2023-02-26T03:02:32;6.60;;;2.05;;
25153;SDS011;47555;51.038;6.280;2023-02-26T03:04:41;3.92;;;1.88;;
25153;SDS011;47555;51.038;6.280;2023-02-26T03:07:07;3.00;;;1.98;;
25153;SDS011;47555;51.038;6.280;2023-02-26T03:09:33;2.65;;;1.65;;
25153;SDS011;47555;51.038;6.280;2023-02-26T03:11:58;4.13;;;1.55;;
25153;SDS011;47555;51.038;6.280;2023-02-26T03:14:25;3.58;;;1.60;;
25153;SDS011;47555;51.038;6.280;2023-02-26T03:17:09;3.30;;;1.67;;
25153;SDS011;47555;51.038;6.280;2023-02-26T03:27:45;1.80;;;1.50;;
25153;SDS011;47555;51.038;6.280;2023-02-26T03:30:29;6.97;;;1.92;;
25153;SDS011;47555;51.038;6.280;2023-02-26T03:33:28;2.97;;;1.60;;
25153;SDS011;47555;51.038;6.280;2023-02-26T03:36:00;4.68;;;1.50;;
25153;SDS011;47555;51.038;6.280;2023-02-26T03:38:54;6.85;;;1.80;;
25153;SDS011;47555;51.038;6.280;2023-02-26T03:41:35;3.70;;;1.60;;
25153;SDS011;47555;51.038;6.280;2023-02-26T03:44:07;2.13;;;1.38;;
25153;SDS011;47555;51.038;6.280;2023-02-26T03:46:38;2.13;;;1.50;;
25153;SDS011;47555;51.038;6.280;2023-02-26T03:49:55;2.25;;;1.70;;
25153;SDS011;47555;51.038;6.280;2023-02-26T03:52:06;4.40;;;1.88;;
25153;SDS011;47555;51.038;6.280;2023-02-26T03:54:42;2.90;;;1.48;;
25153;SDS011;47555;51.038;6.280;2023-02-26T03:57:13;1.50;;;1.40;;
25153;SDS011;47555;51.038;6.280;2023-02-26T03:59:39;4.72;;;2.03;;
25153;SDS011;47555;51.038;6.280;2023-02-26T04:02:12;4.47;;;1.38;;
25153;SDS011;47555;51.038;6.280;2023-02-26T04:04:52;4.95;;;1.75;;
25153;SDS011;47555;51.038;6.280;2023-02-26T04:07:22;8.15;;;1.90;;
25153;SDS011;47555;51.038;6.280;2023-02-26T04:09:49;2.30;;;1.60;;
25153;SDS011;47555;51.038;6.280;2023-02-26T04:12:20;2.25;;;1.98;;
25153;SDS011;47555;51.038;6.280;2023-02-26T04:14:47;2.75;;;1.40;;
25153;SDS011;47555;51.038;6.280;2023-02-26T04:17:12;4.30;;;1.40;;
25153;SDS011;47555;51.038;6.280;2023-02-26T04:19:38;2.72;;;1.77;;
25153;SDS011;47555;51.038;6.280;2023-02-26T04:22:03;2.83;;;1.27;;
25153;SDS011;47555;51.038;6.280;2023-02-26T04:24:29;3.50;;;1.48;;
25153;SDS011;47555;51.038;6.280;2023-02-26T04:26:55;4.20;;;1.67;;
25153;SDS011;47555;51.038;6.280;2023-02-26T04:29:20;3.97;;;1.40;;
25153;SDS011;47555;51.038;6.280;2023-02-26T04:31:46;2.75;;;1.50;;
25153;SDS011;47555;51.038;6.280;2023-02-26T04:34:12;1.50;;;1.40;;
25153;SDS011;47555;51.038;6.280;2023-02-26T04:36:38;1.60;;;1.50;;
25153;SDS011;47555;51.038;6.280;2023-02-26T04:39:03;3.35;;;1.50;;
25153;SDS011;47555;51.038;6.280;2023-02-26T04:41:29;2.10;;;1.70;;
25153;SDS011;47555;51.038;6.280;2023-02-26T04:43:55;8.35;;;1.73;;
25153;SDS011;47555;51.038;6.280;2023-02-26T04:46:20;3.80;;;1.52;;
25153;SDS011;47555;51.038;6.280;2023-02-26T04:48:46;1.42;;;1.33;;
25153;SDS011;47555;51.038;6.280;2023-02-26T04:51:11;1.95;;;1.40;;
25153;SDS011;47555;51.038;6.280;2023-02-26T04:53:38;3.38;;;1.48;;
25153;SDS011;47555;51.038;6.280;2023-02-26T04:56:03;2.88;;;1.58;;
25153;SDS011;47555;51.038;6.280;2023-02-26T04:58:29;6.68;;;1.98;;
25153;SDS011;47555;51.038;6.280;2023-02-26T05:00:55;3.55;;;1.75;;
25153;SDS011;47555;51.038;6.280;2023-02-26T05:03:21;5.15;;;1.55;;
25153;SDS011;47555;51.038;6.280;2023-02-26T05:05:47;4.78;;;1.88;;
25153;SDS011;47555;51.038;6.280;2023-02-26T05:08:13;4.75;;;1.70;;
25153;SDS011;47555;51.038;6.280;2023-02-26T05:10:38;1.90;;;1.42;;
25153;SDS011;47555;51.038;6.280;2023-02-26T05:13:04;3.78;;;1.73;;
25153;SDS011;47555;51.038;6.280;2023-02-26T05:15:30;5.30;;;1.80;;
25153;SDS011;47555;51.038;6.280;2023-02-26T05:17:56;2.38;;;1.52;;
25153;SDS011;47555;51.038;6.280;2023-02-26T05:20:22;1.60;;;1.50;;
25153;SDS011;47555;51.038;6.280;2023-02-26T05:22:48;5.05;;;2.10;;
25153;SDS011;47555;51.038;6.280;2023-02-26T05:25:13;2.97;;;1.52;;
25153;SDS011;47555;51.038;6.280;2023-02-26T05:27:40;4.28;;;1.75;;
25153;SDS011;47555;51.038;6.280;2023-02-26T05:30:09;2.92;;;1.45;;
25153;SDS011;47555;51.038;6.280;2023-02-26T05:32:37;2.95;;;1.60;;
25153;SDS011;47555;51.038;6.280;2023-02-26T05:35:03;8.38;;;1.45;;
25153;SDS011;47555;51.038;6.280;2023-02-26T05:37:29;3.58;;;1.48;;
25153;SDS011;47555;51.038;6.280;2023-02-26T05:39:54;6.30;;;1.50;;
25153;SDS011;47555;51.038;6.280;2023-02-26T05:42:20;5.97;;;1.77;;
25153;SDS011;47555;51.038;6.280;2023-02-26T05:44:45;1.60;;;1.23;;
25153;SDS011;47555;51.038;6.280;2023-02-26T05:47:11;2.63;;;1.42;;
25153;SDS011;47555;51.038;6.280;2023-02-26T05:49:36;4.47;;;1.98;;
25153;SDS011;47555;51.038;6.280;2023-02-26T05:52:02;2.65;;;1.30;;
25153;SDS011;47555;51.038;6.280;2023-02-26T05:54:28;4.43;;;1.50;;
25153;SDS011;47555;51.038;6.280;2023-02-26T05:56:54;2.35;;;1.20;;
25153;SDS011;47555;51.038;6.280;2023-02-26T05:59:20;3.75;;;1.60;;
25153;SDS011;47555;51.038;6.280;2023-02-26T06:01:45;3.35;;;1.48;;
25153;SDS011;47555;51.038;6.280;2023-02-26T06:04:11;4.43;;;2.20;;
25153;SDS011;47555;51.038;6.280;2023-02-26T06:06:36;2.67;;;1.23;;
25153;SDS011;47555;51.038;6.280;2023-02-26T06:09:02;6.07;;;1.40;;
25153;SDS011;47555;51.038;6.280;2023-02-26T06:11:28;2.00;;;1.35;;
25153;SDS011;47555;51.038;6.280;2023-02-26T06:13:54;2.35;;;1.70;;
25153;SDS011;47555;51.038;6.280;2023-02-26T06:16:20;7.03;;;1.48;;
25153;SDS011;47555;51.038;6.280;2023-02-26T06:18:46;1.88;;;1.20;;
25153;SDS011;47555;51.038;6.280;2023-02-26T06:21:12;1.70;;;1.50;;
25153;SDS011;47555;51.038;6.280;2023-02-26T06:23:38;2.78;;;1.20;;
25153;SDS011;47555;51.038;6.280;2023-02-26T06:26:04;1.50;;;1.20;;
25153;SDS011;47555;51.038;6.280;2023-02-26T06:28:30;2.22;;;1.55;;
25153;SDS011;47555;51.038;6.280;2023-02-26T06:30:55;3.20;;;1.77;;
25153;SDS011;47555;51.038;6.280;2023-02-26T06:33:21;1.52;;;1.17;;
25153;SDS011;47555;51.038;6.280;2023-02-26T06:35:47;2.13;;;1.30;;
25153;SDS011;47555;51.038;6.280;2023-02-26T06:38:13;3.47;;;1.40;;
25153;SDS011;47555;51.038;6.280;2023-02-26T06:40:39;2.60;;;1.80;;
25153;SDS011;47555;51.038;6.280;2023-02-26T06:43:05;3.45;;;1.40;;
25153;SDS011;47555;51.038;6.280;2023-02-26T06:45:31;3.50;;;1.35;;
25153;SDS011;47555;51.038;6.280;2023-02-26T06:47:56;4.97;;;1.83;;
25153;SDS011;47555;51.038;6.280;2023-02-26T06:50:22;3.72;;;1.80;;
25153;SDS011;47555;51.038;6.280;2023-02-26T06:52:47;2.47;;;1.50;;
25153;SDS011;47555;51.038;6.280;2023-02-26T06:55:13;1.63;;;1.52;;
25153;SDS011;47555;51.038;6.280;2023-02-26T06:57:39;5.03;;;1.38;;
25153;SDS011;47555;51.038;6.280;2023-02-26T07:00:05;2.38;;;1.50;;
25153;SDS011;47555;51.038;6.280;2023-02-26T07:02:32;2.67;;;1.50;;
25153;SDS011;47555;51.038;6.280;2023-02-26T07:04:57;2.00;;;1.35;;
25153;SDS011;47555;51.038;6.280;2023-02-26T07:07:23;3.00;;;1.50;;
25153;SDS011;47555;51.038;6.280;2023-02-26T07:09:49;2.63;;;1.48;;
25153;SDS011;47555;51.038;6.280;2023-02-26T07:12:14;4.40;;;2.00;;
25153;SDS011;47555;51.038;6.280;2023-02-26T07:14:40;3.30;;;1.23;;
25153;SDS011;47555;51.038;6.280;2023-02-26T07:17:07;6.80;;;1.55;;
25153;SDS011;47555;51.038;6.280;2023-02-26T07:19:33;3.97;;;1.70;;
25153;SDS011;47555;51.038;6.280;2023-02-26T07:21:58;1.40;;;1.20;;
25153;SDS011;47555;51.038;6.280;2023-02-26T07:24:24;3.83;;;1.42;;
25153;SDS011;47555;51.038;6.280;2023-02-26T07:26:49;4.70;;;1.40;;
25153;SDS011;47555;51.038;6.280;2023-02-26T07:29:15;5.13;;;2.00;;
25153;SDS011;47555;51.038;6.280;2023-02-26T07:31:41;3.35;;;1.67;;
25153;SDS011;47555;51.038;6.280;2023-02-26T07:34:06;2.92;;;1.83;;
25153;SDS011;47555;51.038;6.280;2023-02-26T07:36:32;4.38;;;1.50;;
25153;SDS011;47555;51.038;6.280;2023-02-26T07:38:57;3.28;;;1.95;;
25153;SDS011;47555;51.038;6.280;2023-02-26T07:41:23;3.67;;;1.60;;
25153;SDS011;47555;51.038;6.280;2023-02-26T07:43:48;4.50;;;1.80;;
25153;SDS011;47555;51.038;6.280;2023-02-26T07:46:14;4.78;;;1.50;;
25153;SDS011;47555;51.038;6.280;2023-02-26T07:48:39;4.43;;;1.42;;
25153;SDS011;47555;51.038;6.280;2023-02-26T07:51:05;2.58;;;1.33;;
25153;SDS011;47555;51.038;6.280;2023-02-26T07:53:32;4.10;;;2.00;;
25153;SDS011;47555;51.038;6.280;2023-02-26T07:55:57;3.63;;;1.38;;
25153;SDS011;47555;51.038;6.280;2023-02-26T07:58:23;5.38;;;1.60;;
25153;SDS011;47555;51.038;6.280;2023-02-26T08:00:49;3.63;;;2.00;;
25153;SDS011;47555;51.038;6.280;2023-02-26T08:03:16;3.28;;;1.67;;
25153;SDS011;47555;51.038;6.280;2023-02-26T08:05:42;2.33;;;1.48;;
25153;SDS011;47555;51.038;6.280;2023-02-26T08:08:08;2.70;;;1.50;;
25153;SDS011;47555;51.038;6.280;2023-02-26T08:10:34;4.22;;;1.80;;
25153;SDS011;47555;51.038;6.280;2023-02-26T08:12:59;1.90;;;1.70;;
25153;SDS011;47555;51.038;6.280;2023-02-26T08:15:25;2.85;;;1.65;;
25153;SDS011;47555;51.038;6.280;2023-02-26T08:17:51;6.20;;;1.83;;
25153;SDS011;47555;51.038;6.280;2023-02-26T08:20:17;5.00;;;2.08;;
25153;SDS011;47555;51.038;6.280;2023-02-26T08:22:43;6.30;;;2.97;;
25153;SDS011;47555;51.038;6.280;2023-02-26T08:25:09;3.17;;;1.98;;
25153;SDS011;47555;51.038;6.280;2023-02-26T08:27:34;3.38;;;1.83;;
25153;SDS011;47555;51.038;6.280;2023-02-26T08:30:00;1.52;;;1.30;;
25153;SDS011;47555;51.038;6.280;2023-02-26T08:32:27;4.38;;;2.33;;
25153;SDS011;47555;51.038;6.280;2023-02-26T08:34:52;6.00;;;3.10;;
25153;SDS011;47555;51.038;6.280;2023-02-26T08:37:19;3.47;;;1.80;;
25153;SDS011;47555;51.038;6.280;2023-02-26T08:39:47;3.33;;;1.73;;
25153;SDS011;47555;51.038;6.280;2023-02-26T08:42:12;4.80;;;2.33;;
25153;SDS011;47555;51.038;6.280;2023-02-26T08:44:40;2.58;;;1.52;;
25153;SDS011;47555;51.038;6.280;2023-02-26T08:47:09;3.22;;;1.95;;
25153;SDS011;47555;51.038;6.280;2023-02-26T08:49:34;3.33;;;1.52;;
25153;SDS011;47555;51.038;6.280;2023-02-26T08:52:00;2.80;;;1.80;;
25153;SDS011;47555;51.038;6.280;2023-02-26T08:54:25;1.95;;;1.55;;
25153;SDS011;47555;51.038;6.280;2023-02-26T08:56:51;5.20;;;1.67;;
25153;SDS011;47555;51.038;6.280;2023-02-26T08:59:19;5.25;;;2.40;;
25153;SDS011;47555;51.038;6.280;2023-02-26T09:01:45;4.43;;;1.92;;
25153;SDS011;47555;51.038;6.280;2023-02-26T09:04:11;1.52;;;1.42;;
25153;SDS011;47555;51.038;6.280;2023-02-26T09:06:36;1.70;;;1.52;;
25153;SDS011;47555;51.038;6.280;2023-02-26T09:09:02;4.07;;;2.15;;
25153;SDS011;47555;51.038;6.280;2023-02-26T09:11:28;2.33;;;1.25;;
25153;SDS011;47555;51.038;6.280;2023-02-26T09:13:54;2.42;;;1.35;;
25153;SDS011;47555;51.038;6.280;2023-02-26T09:16:22;2.70;;;1.38;;
25153;SDS011;47555;51.038;6.280;2023-02-26T09:18:48;7.65;;;1.60;;
25153;SDS011;47555;51.038;6.280;2023-02-26T09:21:14;7.53;;;1.52;;
25153;SDS011;47555;51.038;6.280;2023-02-26T09:23:40;1.90;;;1.15;;
25153;SDS011;47555;51.038;6.280;2023-02-26T09:26:05;1.30;;;1.20;;
25153;SDS011;47555;51.038;6.280;2023-02-26T09:28:32;2.10;;;1.50;;
25153;SDS011;47555;51.038;6.280;2023-02-26T09:30:58;3.28;;;1.40;;
25153;SDS011;47555;51.038;6.280;2023-02-26T09:33:24;1.67;;;1.15;;
25153;SDS011;47555;51.038;6.280;2023-02-26T09:35:49;3.58;;;1.50;;
25153;SDS011;47555;51.038;6.280;2023-02-26T09:38:15;1.10;;;1.00;;
25153;SDS011;47555;51.038;6.280;2023-02-26T09:40:46;2.05;;;1.23;;
25153;SDS011;47555;51.038;6.280;2023-02-26T09:43:25;3.17;;;1.13;;
25153;SDS011;47555;51.038;6.280;2023-02-26T09:46:20;1.60;;;0.90;;
25153;SDS011;47555;51.038;6.280;2023-02-26T09:48:46;2.53;;;1.10;;
25153;SDS011;47555;51.038;6.280;2023-02-26T09:51:17;2.03;;;0.93;;
25153;SDS011;47555;51.038;6.280;2023-02-26T09:53:46;1.73;;;1.05;;
25153;SDS011;47555;51.038;6.280;2023-02-26T09:56:15;1.58;;;0.93;;
25153;SDS011;47555;51.038;6.280;2023-02-26T09:58:43;1.63;;;1.13;;
25153;SDS011;47555;51.038;6.280;2023-02-26T10:12:20;2.83;;;1.15;;
25153;SDS011;47555;51.038;6.280;2023-02-26T10:17:32;2.63;;;1.17;;
25153;SDS011;47555;51.038;6.280;2023-02-26T10:20:09;1.15;;;1.05;;
25153;SDS011;47555;51.038;6.280;2023-02-26T10:22:52;1.33;;;1.08;;
25153;SDS011;47555;51.038;6.280;2023-02-26T10:25:39;1.83;;;1.25;;
25153;SDS011;47555;51.038;6.280;2023-02-26T10:31:05;2.45;;;0.80;;
25153;SDS011;47555;51.038;6.280;2023-02-26T10:39:15;1.25;;;0.90;;
25153;SDS011;47555;51.038;6.280;2023-02-26T10:41:55;1.08;;;0.80;;
25153;SDS011;47555;51.038;6.280;2023-02-26T10:44:29;1.00;;;0.90;;
25153;SDS011;47555;51.038;6.280;2023-02-26T10:47:08;1.67;;;0.98;;
25153;SDS011;47555;51.038;6.280;2023-02-26T10:52:13;1.02;;;0.60;;
25153;SDS011;47555;51.038;6.280;2023-02-26T10:54:48;1.65;;;1.00;;
25153;SDS011;47555;51.038;6.280;2023-02-26T10:57:39;0.60;;;0.60;;
25153;SDS011;47555;51.038;6.280;2023-02-26T11:00:16;2.40;;;1.00;;
25153;SDS011;47555;51.038;6.280;2023-02-26T11:05:18;2.15;;;1.10;;
25153;SDS011;47555;51.038;6.280;2023-02-26T11:07:47;2.05;;;0.90;;
25153;SDS011;47555;51.038;6.280;2023-02-26T11:10:17;6.20;;;0.88;;
25153;SDS011;47555;51.038;6.280;2023-02-26T11:12:47;1.03;;;0.87;;
25153;SDS011;47555;51.038;6.280;2023-02-26T11:15:14;2.28;;;1.08;;
25153;SDS011;47555;51.038;6.280;2023-02-26T11:17:42;3.03;;;1.20;;
25153;SDS011;47555;51.038;6.280;2023-02-26T11:20:18;5.25;;;2.40;;
25153;SDS011;47555;51.038;6.280;2023-02-26T11:22:52;1.20;;;0.95;;
25153;SDS011;47555;51.038;6.280;2023-02-26T11:25:22;1.73;;;1.17;;
25153;SDS011;47555;51.038;6.280;2023-02-26T11:27:52;1.55;;;0.90;;
25153;SDS011;47555;51.038;6.280;2023-02-26T11:32:50;2.05;;;1.20;;
25153;SDS011;47555;51.038;6.280;2023-02-26T11:35:18;2.35;;;1.75;;
25153;SDS011;47555;51.038;6.280;2023-02-26T11:37:47;1.42;;;1.20;;
25153;SDS011;47555;51.038;6.280;2023-02-26T11:40:20;1.65;;;1.55;;
25153;SDS011;47555;51.038;6.280;2023-02-26T11:42:50;2.63;;;1.20;;
25153;SDS011;47555;51.038;6.280;2023-02-26T11:45:22;1.33;;;1.23;;
25153;SDS011;47555;51.038;6.280;2023-02-26T11:47:48;2.47;;;1.20;;
25153;SDS011;47555;51.038;6.280;2023-02-26T11:50:20;2.17;;;1.25;;
25153;SDS011;47555;51.038;6.280;2023-02-26T11:52:56;1.52;;;1.30;;
25153;SDS011;47555;51.038;6.280;2023-02-26T11:55:32;1.67;;;1.10;;
25153;SDS011;47555;51.038;6.280;2023-02-26T11:58:01;1.15;;;1.00;;
25153;SDS011;47555;51.038;6.280;2023-02-26T12:00:43;2.97;;;1.10;;
25153;SDS011;47555;51.038;6.280;2023-02-26T12:03:14;0.80;;;0.80;;
25153;SDS011;47555;51.038;6.280;2023-02-26T12:05:41;2.13;;;1.10;;
25153;SDS011;47555;51.038;6.280;2023-02-26T12:08:14;0.98;;;0.90;;
25153;SDS011;47555;51.038;6.280;2023-02-26T12:10:51;1.67;;;0.98;;
25153;SDS011;47555;51.038;6.280;2023-02-26T12:13:58;1.83;;;0.80;;
25153;SDS011;47555;51.038;6.280;2023-02-26T12:19:05;0.85;;;0.85;;
25153;SDS011;47555;51.038;6.280;2023-02-26T12:30:19;1.75;;;1.60;;
25153;SDS011;47555;51.038;6.280;2023-02-26T12:33:17;2.50;;;1.20;;
25153;SDS011;47555;51.038;6.280;2023-02-26T12:36:25;2.30;;;1.15;;
25153;SDS011;47555;51.038;6.280;2023-02-26T12:41:40;1.52;;;1.00;;
25153;SDS011;47555;51.038;6.280;2023-02-26T12:44:43;1.17;;;1.08;;
25153;SDS011;47555;51.038;6.280;2023-02-26T12:55:41;2.47;;;1.40;;
25153;SDS011;47555;51.038;6.280;2023-02-26T12:58:47;1.48;;;1.10;;
25153;SDS011;47555;51.038;6.280;2023-02-26T13:04:28;1.20;;;0.90;;
25153;SDS011;47555;51.038;6.280;2023-02-26T13:09:49;1.27;;;1.00;;
25153;SDS011;47555;51.038;6.280;2023-02-26T13:15:13;2.05;;;1.20;;
25153;SDS011;47555;51.038;6.280;2023-02-26T13:17:56;0.80;;;0.80;;
25153;SDS011;47555;51.038;6.280;2023-02-26T13:20:30;2.25;;;1.30;;
25153;SDS011;47555;51.038;6.280;2023-02-26T13:22:58;1.70;;;1.08;;
25153;SDS011;47555;51.038;6.280;2023-02-26T13:25:48;2.28;;;1.23;;
25153;SDS011;47555;51.038;6.280;2023-02-26T13:28:21;2.28;;;1.00;;
25153;SDS011;47555;51.038;6.280;2023-02-26T13:31:04;0.82;;;0.82;;
25153;SDS011;47555;51.038;6.280;2023-02-26T13:33:43;1.98;;;1.00;;
25153;SDS011;47555;51.038;6.280;2023-02-26T13:36:12;1.20;;;0.93;;
25153;SDS011;47555;51.038;6.280;2023-02-26T13:44:05;1.08;;;0.98;;
25153;SDS011;47555;51.038;6.280;2023-02-26T13:46:51;2.45;;;1.08;;
25153;SDS011;47555;51.038;6.280;2023-02-26T13:49:33;2.28;;;1.02;;
25153;SDS011;47555;51.038;6.280;2023-02-26T13:52:35;1.23;;;1.13;;
25153;SDS011;47555;51.038;6.280;2023-02-26T13:55:01;2.38;;;1.15;;
25153;SDS011;47555;51.038;6.280;2023-02-26T14:02:53;2.22;;;1.20;;
25153;SDS011;47555;51.038;6.280;2023-02-26T14:08:23;1.27;;;1.00;;
25153;SDS011;47555;51.038;6.280;2023-02-26T14:10:58;1.45;;;1.10;;
25153;SDS011;47555;51.038;6.280;2023-02-26T14:13:34;2.72;;;1.40;;
25153;SDS011;47555;51.038;6.280;2023-02-26T14:16:10;1.30;;;1.20;;
25153;SDS011;47555;51.038;6.280;2023-02-26T14:23:49;1.00;;;1.00;;
25153;SDS011;47555;51.038;6.280;2023-02-26T14:26:24;3.58;;;1.10;;
25153;SDS011;47555;51.038;6.280;2023-02-26T14:29:11;2.60;;;1.10;;
25153;SDS011;47555;51.038;6.280;2023-02-26T14:34:27;2.13;;;1.10;;
25153;SDS011;47555;51.038;6.280;2023-02-26T14:36:59;1.23;;;1.13;;
25153;SDS011;47555;51.038;6.280;2023-02-26T14:41:58;2.47;;;1.30;;
25153;SDS011;47555;51.038;6.280;2023-02-26T14:44:30;2.13;;;1.20;;
25153;SDS011;47555;51.038;6.280;2023-02-26T14:47:02;2.53;;;1.35;;
25153;SDS011;47555;51.038;6.280;2023-02-26T14:49:33;2.60;;;1.40;;
25153;SDS011;47555;51.038;6.280;2023-02-26T15:00:38;1.60;;;1.35;;
25153;SDS011;47555;51.038;6.280;2023-02-26T15:03:39;2.78;;;1.20;;
25153;SDS011;47555;51.038;6.280;2023-02-26T15:09:14;1.85;;;1.55;;
25153;SDS011;47555;51.038;6.280;2023-02-26T15:12:05;1.35;;;1.25;;
25153;SDS011;47555;51.038;6.280;2023-02-26T15:18:13;2.47;;;1.20;;
25153;SDS011;47555;51.038;6.280;2023-02-26T15:23:56;3.17;;;1.10;;
25153;SDS011;47555;51.038;6.280;2023-02-26T15:26:25;1.30;;;1.20;;
25153;SDS011;47555;51.038;6.280;2023-02-26T15:28:59;3.15;;;1.30;;
25153;SDS011;47555;51.038;6.280;2023-02-26T15:31:33;2.17;;;1.10;;
25153;SDS011;47555;51.038;6.280;2023-02-26T15:34:01;1.70;;;1.17;;
25153;SDS011;47555;51.038;6.280;2023-02-26T15:36:28;3.03;;;1.38;;
25153;SDS011;47555;51.038;6.280;2023-02-26T15:38:56;3.28;;;1.60;;
25153;SDS011;47555;51.038;6.280;2023-02-26T15:41:25;1.88;;;1.33;;
25153;SDS011;47555;51.038;6.280;2023-02-26T15:43:54;1.25;;;1.15;;
25153;SDS011;47555;51.038;6.280;2023-02-26T15:46:31;2.55;;;1.73;;
25153;SDS011;47555;51.038;6.280;2023-02-26T15:49:01;4.95;;;1.60;;
25153;SDS011;47555;51.038;6.280;2023-02-26T15:51:39;1.48;;;1.23;;
25153;SDS011;47555;51.038;6.280;2023-02-26T15:54:06;1.30;;;1.20;;
25153;SDS011;47555;51.038;6.280;2023-02-26T15:56:37;3.03;;;1.95;;
25153;SDS011;47555;51.038;6.280;2023-02-26T15:59:12;1.80;;;1.00;;
25153;SDS011;47555;51.038;6.280;2023-02-26T16:01:46;1.75;;;1.20;;
25153;SDS011;47555;51.038;6.280;2023-02-26T16:04:15;2.20;;;1.25;;
25153;SDS011;47555;51.038;6.280;2023-02-26T16:06:44;3.40;;;1.48;;
25153;SDS011;47555;51.038;6.280;2023-02-26T16:09:16;3.65;;;1.50;;
25153;SDS011;47555;51.038;6.280;2023-02-26T16:11:57;3.93;;;1.63;;
25153;SDS011;47555;51.038;6.280;2023-02-26T16:16:55;1.95;;;1.38;;
25153;SDS011;47555;51.038;6.280;2023-02-26T16:19:36;1.63;;;1.27;;
25153;SDS011;47555;51.038;6.280;2023-02-26T16:22:21;2.28;;;1.70;;
25153;SDS011;47555;51.038;6.280;2023-02-26T16:24:56;1.35;;;1.25;;
25153;SDS011;47555;51.038;6.280;2023-02-26T16:27:25;1.98;;;1.33;;
25153;SDS011;47555;51.038;6.280;2023-02-26T16:29:54;5.72;;;1.77;;
25153;SDS011;47555;51.038;6.280;2023-02-26T16:32:21;5.88;;;1.52;;
25153;SDS011;47555;51.038;6.280;2023-02-26T16:34:53;1.77;;;1.27;;
25153;SDS011;47555;51.038;6.280;2023-02-26T16:40:04;3.25;;;1.60;;
25153;SDS011;47555;51.038;6.280;2023-02-26T16:45:42;3.60;;;1.33;;
25153;SDS011;47555;51.038;6.280;2023-02-26T16:48:26;3.10;;;1.60;;
25153;SDS011;47555;51.038;6.280;2023-02-26T16:50:57;4.20;;;1.80;;
25153;SDS011;47555;51.038;6.280;2023-02-26T16:56:40;3.78;;;1.50;;
25153;SDS011;47555;51.038;6.280;2023-02-26T16:59:18;2.20;;;1.70;;
25153;SDS011;47555;51.038;6.280;2023-02-26T17:01:56;2.70;;;1.45;;
25153;SDS011;47555;51.038;6.280;2023-02-26T17:04:25;2.55;;;1.50;;
25153;SDS011;47555;51.038;6.280;2023-02-26T17:06:54;2.15;;;1.92;;
25153;SDS011;47555;51.038;6.280;2023-02-26T17:09:24;1.50;;;1.40;;
25153;SDS011;47555;51.038;6.280;2023-02-26T17:12:12;3.20;;;1.67;;
25153;SDS011;47555;51.038;6.280;2023-02-26T17:14:39;2.42;;;2.05;;
25153;SDS011;47555;51.038;6.280;2023-02-26T17:17:09;3.15;;;1.80;;
25153;SDS011;47555;51.038;6.280;2023-02-26T17:19:35;4.70;;;2.13;;
25153;SDS011;47555;51.038;6.280;2023-02-26T17:22:02;2.33;;;1.60;;
25153;SDS011;47555;51.038;6.280;2023-02-26T17:24:30;2.33;;;2.00;;
25153;SDS011;47555;51.038;6.280;2023-02-26T17:26:59;3.30;;;1.83;;
25153;SDS011;47555;51.038;6.280;2023-02-26T17:29:31;2.35;;;1.80;;
25153;SDS011;47555;51.038;6.280;2023-02-26T17:32:00;3.03;;;1.83;;
25153;SDS011;47555;51.038;6.280;2023-02-26T17:34:26;2.58;;;2.38;;
25153;SDS011;47555;51.038;6.280;2023-02-26T17:36:52;3.35;;;2.15;;
25153;SDS011;47555;51.038;6.280;2023-02-26T17:39:20;2.30;;;2.10;;
25153;SDS011;47555;51.038;6.280;2023-02-26T17:41:45;4.18;;;2.13;;
25153;SDS011;47555;51.038;6.280;2023-02-26T17:44:11;3.58;;;1.90;;
25153;SDS011;47555;51.038;6.280;2023-02-26T17:46:36;2.72;;;1.98;;
25153;SDS011;47555;51.038;6.280;2023-02-26T17:49:02;3.90;;;2.35;;
25153;SDS011;47555;51.038;6.280;2023-02-26T17:51:28;2.67;;;2.42;;